sensor_id;sensor_type;location;lat;lon;timestamp;P1;durP1;ratioP1;P2;durP2;ratioP2
23578;SDS011;11967;50.852;4.400;2023-01-29T00:02:04;53.13;;;31.90;;
23578;SDS011;11967;50.852;4.400;2023-01-29T00:04:30;57.30;;;32.03;;
23578;SDS011;11967;50.852;4.400;2023-01-29T00:06:56;54.78;;;30.23;;
23578;SDS011;11967;50.852;4.400;2023-01-29T00:09:22;54.63;;;30.55;;
23578;SDS011;11967;50.852;4.400;2023-01-29T00:11:48;55.00;;;30.02;;
23578;SDS011;11967;50.852;4.400;2023-01-29T00:14:14;57.72;;;31.90;;
23578;SDS011;11967;50.852;4.400;2023-01-29T00:16:39;57.22;;;32.60;;
23578;SDS011;11967;50.852;4.400;2023-01-29T00:19:05;53.30;;;31.95;;
23578;SDS011;11967;50.852;4.400;2023-01-29T00:21:31;53.45;;;31.05;;
23578;SDS011;11967;50.852;4.400;2023-01-29T00:23:56;56.88;;;32.85;;
23578;SDS011;11967;50.852;4.400;2023-01-29T00:26:23;61.88;;;32.22;;
23578;SDS011;11967;50.852;4.400;2023-01-29T00:28:48;56.38;;;32.42;;
23578;SDS011;11967;50.852;4.400;2023-01-29T00:31:23;54.30;;;30.77;;
23578;SDS011;11967;50.852;4.400;2023-01-29T00:33:49;52.42;;;30.48;;
23578;SDS011;11967;50.852;4.400;2023-01-29T00:36:16;51.63;;;29.02;;
23578;SDS011;11967;50.852;4.400;2023-01-29T00:38:43;49.92;;;29.60;;
23578;SDS011;11967;50.852;4.400;2023-01-29T00:41:18;53.10;;;28.92;;
23578;SDS011;11967;50.852;4.400;2023-01-29T00:44:04;47.95;;;28.15;;
23578;SDS011;11967;50.852;4.400;2023-01-29T00:46:49;49.17;;;28.40;;
23578;SDS011;11967;50.852;4.400;2023-01-29T00:49:15;52.00;;;29.73;;
23578;SDS011;11967;50.852;4.400;2023-01-29T00:51:40;48.88;;;28.38;;
23578;SDS011;11967;50.852;4.400;2023-01-29T00:54:06;49.30;;;28.95;;
23578;SDS011;11967;50.852;4.400;2023-01-29T00:56:32;52.50;;;29.38;;
23578;SDS011;11967;50.852;4.400;2023-01-29T00:59:00;50.78;;;29.90;;
23578;SDS011;11967;50.852;4.400;2023-01-29T01:01:25;50.85;;;28.98;;
23578;SDS011;11967;50.852;4.400;2023-01-29T01:04:10;51.10;;;29.83;;
23578;SDS011;11967;50.852;4.400;2023-01-29T01:06:39;52.63;;;30.25;;
23578;SDS011;11967;50.852;4.400;2023-01-29T01:09:06;51.63;;;29.40;;
23578;SDS011;11967;50.852;4.400;2023-01-29T01:11:52;52.28;;;28.88;;
23578;SDS011;11967;50.852;4.400;2023-01-29T01:14:18;50.20;;;28.85;;
23578;SDS011;11967;50.852;4.400;2023-01-29T01:16:45;52.80;;;29.83;;
23578;SDS011;11967;50.852;4.400;2023-01-29T01:19:12;49.95;;;28.92;;
23578;SDS011;11967;50.852;4.400;2023-01-29T01:21:39;46.90;;;27.85;;
23578;SDS011;11967;50.852;4.400;2023-01-29T01:24:09;51.72;;;28.08;;
23578;SDS011;11967;50.852;4.400;2023-01-29T01:26:35;48.80;;;28.50;;
23578;SDS011;11967;50.852;4.400;2023-01-29T01:29:00;52.17;;;28.60;;
23578;SDS011;11967;50.852;4.400;2023-01-29T01:31:26;53.13;;;29.02;;
23578;SDS011;11967;50.852;4.400;2023-01-29T01:33:52;47.67;;;28.10;;
23578;SDS011;11967;50.852;4.400;2023-01-29T01:36:19;53.97;;;29.10;;
23578;SDS011;11967;50.852;4.400;2023-01-29T01:38:45;56.20;;;29.48;;
23578;SDS011;11967;50.852;4.400;2023-01-29T01:41:11;49.30;;;28.17;;
23578;SDS011;11967;50.852;4.400;2023-01-29T01:44:02;56.38;;;28.85;;
23578;SDS011;11967;50.852;4.400;2023-01-29T01:46:32;50.03;;;27.45;;
23578;SDS011;11967;50.852;4.400;2023-01-29T01:49:10;50.60;;;27.95;;
23578;SDS011;11967;50.852;4.400;2023-01-29T01:51:42;50.72;;;27.05;;
23578;SDS011;11967;50.852;4.400;2023-01-29T01:54:16;52.33;;;28.40;;
23578;SDS011;11967;50.852;4.400;2023-01-29T01:56:48;52.67;;;29.08;;
23578;SDS011;11967;50.852;4.400;2023-01-29T01:59:19;50.42;;;28.08;;
23578;SDS011;11967;50.852;4.400;2023-01-29T02:01:48;47.90;;;27.45;;
23578;SDS011;11967;50.852;4.400;2023-01-29T02:04:21;50.10;;;26.52;;
23578;SDS011;11967;50.852;4.400;2023-01-29T02:07:08;50.95;;;28.08;;
23578;SDS011;11967;50.852;4.400;2023-01-29T02:10:00;51.83;;;28.67;;
23578;SDS011;11967;50.852;4.400;2023-01-29T02:12:39;50.50;;;27.88;;
23578;SDS011;11967;50.852;4.400;2023-01-29T02:15:06;47.85;;;27.52;;
23578;SDS011;11967;50.852;4.400;2023-01-29T02:17:33;51.53;;;28.35;;
23578;SDS011;11967;50.852;4.400;2023-01-29T02:30:49;49.72;;;27.77;;
23578;SDS011;11967;50.852;4.400;2023-01-29T02:33:20;54.58;;;29.00;;
23578;SDS011;11967;50.852;4.400;2023-01-29T02:36:03;53.03;;;28.73;;
23578;SDS011;11967;50.852;4.400;2023-01-29T02:41:30;57.15;;;30.35;;
23578;SDS011;11967;50.852;4.400;2023-01-29T02:44:22;53.85;;;28.88;;
23578;SDS011;11967;50.852;4.400;2023-01-29T02:47:09;45.57;;;24.23;;
23578;SDS011;11967;50.852;4.400;2023-01-29T02:52:43;60.80;;;31.70;;
23578;SDS011;11967;50.852;4.400;2023-01-29T02:55:20;57.53;;;30.38;;
23578;SDS011;11967;50.852;4.400;2023-01-29T02:57:54;57.83;;;30.50;;
23578;SDS011;11967;50.852;4.400;2023-01-29T03:00:27;55.67;;;30.07;;
23578;SDS011;11967;50.852;4.400;2023-01-29T03:08:39;57.88;;;31.00;;
23578;SDS011;11967;50.852;4.400;2023-01-29T03:11:10;62.45;;;32.42;;
23578;SDS011;11967;50.852;4.400;2023-01-29T03:13:42;55.00;;;30.00;;
23578;SDS011;11967;50.852;4.400;2023-01-29T03:18:44;63.92;;;32.67;;
23578;SDS011;11967;50.852;4.400;2023-01-29T03:21:18;55.75;;;29.77;;
23578;SDS011;11967;50.852;4.400;2023-01-29T03:24:10;58.00;;;30.95;;
23578;SDS011;11967;50.852;4.400;2023-01-29T03:26:57;56.05;;;30.67;;
23578;SDS011;11967;50.852;4.400;2023-01-29T03:29:43;54.33;;;29.95;;
23578;SDS011;11967;50.852;4.400;2023-01-29T03:32:32;55.03;;;29.80;;
23578;SDS011;11967;50.852;4.400;2023-01-29T03:35:00;54.70;;;28.65;;
23578;SDS011;11967;50.852;4.400;2023-01-29T03:37:31;56.53;;;29.85;;
23578;SDS011;11967;50.852;4.400;2023-01-29T03:40:03;56.15;;;29.45;;
23578;SDS011;11967;50.852;4.400;2023-01-29T03:42:48;53.97;;;28.20;;
23578;SDS011;11967;50.852;4.400;2023-01-29T03:56:13;52.90;;;28.30;;
23578;SDS011;11967;50.852;4.400;2023-01-29T03:59:01;52.38;;;28.88;;
23578;SDS011;11967;50.852;4.400;2023-01-29T04:01:39;51.50;;;28.05;;
23578;SDS011;11967;50.852;4.400;2023-01-29T04:06:56;55.65;;;28.63;;
23578;SDS011;11967;50.852;4.400;2023-01-29T04:09:33;54.13;;;29.48;;
23578;SDS011;11967;50.852;4.400;2023-01-29T04:12:06;57.42;;;29.45;;
23578;SDS011;11967;50.852;4.400;2023-01-29T04:14:33;54.22;;;29.20;;
23578;SDS011;11967;50.852;4.400;2023-01-29T04:17:00;55.00;;;29.00;;
23578;SDS011;11967;50.852;4.400;2023-01-29T04:19:30;62.10;;;30.73;;
23578;SDS011;11967;50.852;4.400;2023-01-29T04:22:01;51.63;;;28.92;;
23578;SDS011;11967;50.852;4.400;2023-01-29T04:24:36;53.20;;;29.65;;
23578;SDS011;11967;50.852;4.400;2023-01-29T04:36:08;56.55;;;29.75;;
23578;SDS011;11967;50.852;4.400;2023-01-29T04:42:03;55.17;;;28.92;;
23578;SDS011;11967;50.852;4.400;2023-01-29T04:44:46;58.08;;;30.63;;
23578;SDS011;11967;50.852;4.400;2023-01-29T04:58:56;52.00;;;28.27;;
23578;SDS011;11967;50.852;4.400;2023-01-29T05:01:00;54.83;;;28.73;;
23578;SDS011;11967;50.852;4.400;2023-01-29T05:03:28;54.40;;;28.92;;
23578;SDS011;11967;50.852;4.400;2023-01-29T05:05:58;56.35;;;28.08;;
23578;SDS011;11967;50.852;4.400;2023-01-29T05:08:26;58.22;;;29.77;;
23578;SDS011;11967;50.852;4.400;2023-01-29T05:10:54;55.42;;;29.92;;
23578;SDS011;11967;50.852;4.400;2023-01-29T05:13:22;55.88;;;29.25;;
23578;SDS011;11967;50.852;4.400;2023-01-29T05:15:55;56.08;;;29.70;;
23578;SDS011;11967;50.852;4.400;2023-01-29T05:18:45;57.65;;;30.00;;
23578;SDS011;11967;50.852;4.400;2023-01-29T05:21:11;53.78;;;28.85;;
23578;SDS011;11967;50.852;4.400;2023-01-29T05:23:38;58.50;;;29.88;;
23578;SDS011;11967;50.852;4.400;2023-01-29T05:26:05;57.63;;;29.45;;
23578;SDS011;11967;50.852;4.400;2023-01-29T05:28:30;55.17;;;29.60;;
23578;SDS011;11967;50.852;4.400;2023-01-29T05:30:56;57.08;;;30.23;;
23578;SDS011;11967;50.852;4.400;2023-01-29T05:33:23;58.38;;;30.02;;
23578;SDS011;11967;50.852;4.400;2023-01-29T05:35:50;58.50;;;29.60;;
23578;SDS011;11967;50.852;4.400;2023-01-29T05:38:16;60.25;;;30.75;;
23578;SDS011;11967;50.852;4.400;2023-01-29T05:40:43;58.42;;;30.60;;
23578;SDS011;11967;50.852;4.400;2023-01-29T05:43:16;58.83;;;30.55;;
23578;SDS011;11967;50.852;4.400;2023-01-29T05:45:53;58.42;;;30.45;;
23578;SDS011;11967;50.852;4.400;2023-01-29T05:48:23;57.50;;;31.55;;
23578;SDS011;11967;50.852;4.400;2023-01-29T05:50:51;53.20;;;29.15;;
23578;SDS011;11967;50.852;4.400;2023-01-29T05:53:17;56.13;;;30.08;;
23578;SDS011;11967;50.852;4.400;2023-01-29T05:55:43;59.47;;;30.17;;
23578;SDS011;11967;50.852;4.400;2023-01-29T05:58:10;58.15;;;29.88;;
23578;SDS011;11967;50.852;4.400;2023-01-29T06:00:35;59.10;;;30.17;;
23578;SDS011;11967;50.852;4.400;2023-01-29T06:03:01;56.70;;;30.65;;
23578;SDS011;11967;50.852;4.400;2023-01-29T06:05:27;59.10;;;31.05;;
23578;SDS011;11967;50.852;4.400;2023-01-29T06:07:52;61.85;;;31.67;;
23578;SDS011;11967;50.852;4.400;2023-01-29T06:10:18;54.60;;;29.85;;
23578;SDS011;11967;50.852;4.400;2023-01-29T06:12:44;54.47;;;30.95;;
23578;SDS011;11967;50.852;4.400;2023-01-29T06:15:10;57.13;;;31.13;;
23578;SDS011;11967;50.852;4.400;2023-01-29T06:17:36;57.35;;;30.23;;
23578;SDS011;11967;50.852;4.400;2023-01-29T06:20:02;58.03;;;31.33;;
23578;SDS011;11967;50.852;4.400;2023-01-29T06:22:29;59.40;;;31.38;;
23578;SDS011;11967;50.852;4.400;2023-01-29T06:24:56;57.80;;;31.83;;
23578;SDS011;11967;50.852;4.400;2023-01-29T06:27:22;55.47;;;31.13;;
23578;SDS011;11967;50.852;4.400;2023-01-29T06:29:47;56.80;;;32.20;;
23578;SDS011;11967;50.852;4.400;2023-01-29T06:32:13;58.78;;;33.22;;
23578;SDS011;11967;50.852;4.400;2023-01-29T06:34:38;57.58;;;31.85;;
23578;SDS011;11967;50.852;4.400;2023-01-29T06:37:04;57.15;;;31.50;;
23578;SDS011;11967;50.852;4.400;2023-01-29T06:39:32;60.72;;;33.00;;
23578;SDS011;11967;50.852;4.400;2023-01-29T06:41:57;60.90;;;32.30;;
23578;SDS011;11967;50.852;4.400;2023-01-29T06:44:23;55.70;;;31.02;;
23578;SDS011;11967;50.852;4.400;2023-01-29T06:46:49;57.65;;;31.27;;
23578;SDS011;11967;50.852;4.400;2023-01-29T06:49:14;55.90;;;31.27;;
23578;SDS011;11967;50.852;4.400;2023-01-29T06:51:40;58.67;;;31.55;;
23578;SDS011;11967;50.852;4.400;2023-01-29T06:54:06;56.53;;;31.65;;
23578;SDS011;11967;50.852;4.400;2023-01-29T06:56:33;59.45;;;32.17;;
23578;SDS011;11967;50.852;4.400;2023-01-29T06:58:58;61.80;;;33.08;;
23578;SDS011;11967;50.852;4.400;2023-01-29T07:01:24;60.75;;;32.35;;
23578;SDS011;11967;50.852;4.400;2023-01-29T07:03:50;63.95;;;31.83;;
23578;SDS011;11967;50.852;4.400;2023-01-29T07:06:15;57.50;;;31.73;;
23578;SDS011;11967;50.852;4.400;2023-01-29T07:08:41;55.05;;;32.13;;
23578;SDS011;11967;50.852;4.400;2023-01-29T07:11:07;61.15;;;32.53;;
23578;SDS011;11967;50.852;4.400;2023-01-29T07:13:33;61.10;;;32.78;;
23578;SDS011;11967;50.852;4.400;2023-01-29T07:15:59;62.08;;;32.35;;
23578;SDS011;11967;50.852;4.400;2023-01-29T07:18:25;64.03;;;34.22;;
23578;SDS011;11967;50.852;4.400;2023-01-29T07:20:52;60.78;;;32.45;;
23578;SDS011;11967;50.852;4.400;2023-01-29T07:23:17;60.55;;;32.58;;
23578;SDS011;11967;50.852;4.400;2023-01-29T07:25:43;62.70;;;32.92;;
23578;SDS011;11967;50.852;4.400;2023-01-29T07:28:09;59.42;;;32.20;;
23578;SDS011;11967;50.852;4.400;2023-01-29T07:30:35;61.45;;;33.50;;
23578;SDS011;11967;50.852;4.400;2023-01-29T07:33:04;60.67;;;32.63;;
23578;SDS011;11967;50.852;4.400;2023-01-29T07:35:34;61.40;;;33.20;;
23578;SDS011;11967;50.852;4.400;2023-01-29T07:38:02;63.47;;;34.20;;
23578;SDS011;11967;50.852;4.400;2023-01-29T07:40:27;60.15;;;32.65;;
23578;SDS011;11967;50.852;4.400;2023-01-29T07:42:57;60.60;;;32.28;;
23578;SDS011;11967;50.852;4.400;2023-01-29T07:45:23;60.88;;;31.80;;
23578;SDS011;11967;50.852;4.400;2023-01-29T07:47:53;57.80;;;31.77;;
23578;SDS011;11967;50.852;4.400;2023-01-29T07:50:23;58.42;;;31.65;;
23578;SDS011;11967;50.852;4.400;2023-01-29T07:52:50;59.30;;;30.98;;
23578;SDS011;11967;50.852;4.400;2023-01-29T07:55:19;56.42;;;30.60;;
23578;SDS011;11967;50.852;4.400;2023-01-29T07:57:45;62.15;;;32.22;;
23578;SDS011;11967;50.852;4.400;2023-01-29T08:00:12;55.40;;;30.48;;
23578;SDS011;11967;50.852;4.400;2023-01-29T08:02:39;57.03;;;30.25;;
23578;SDS011;11967;50.852;4.400;2023-01-29T08:05:05;58.65;;;31.55;;
23578;SDS011;11967;50.852;4.400;2023-01-29T08:07:31;56.97;;;31.02;;
23578;SDS011;11967;50.852;4.400;2023-01-29T08:09:56;56.00;;;30.63;;
23578;SDS011;11967;50.852;4.400;2023-01-29T08:12:23;58.42;;;30.17;;
23578;SDS011;11967;50.852;4.400;2023-01-29T08:14:48;57.65;;;31.02;;
23578;SDS011;11967;50.852;4.400;2023-01-29T08:17:14;54.65;;;28.85;;
23578;SDS011;11967;50.852;4.400;2023-01-29T08:19:40;55.08;;;28.38;;
23578;SDS011;11967;50.852;4.400;2023-01-29T08:22:06;53.88;;;28.27;;
23578;SDS011;11967;50.852;4.400;2023-01-29T08:24:32;53.25;;;27.73;;
23578;SDS011;11967;50.852;4.400;2023-01-29T08:26:58;52.65;;;27.27;;
23578;SDS011;11967;50.852;4.400;2023-01-29T08:29:23;51.05;;;25.25;;
23578;SDS011;11967;50.852;4.400;2023-01-29T08:31:49;52.13;;;26.73;;
23578;SDS011;11967;50.852;4.400;2023-01-29T08:34:15;47.55;;;26.13;;
23578;SDS011;11967;50.852;4.400;2023-01-29T08:36:41;54.25;;;27.00;;
23578;SDS011;11967;50.852;4.400;2023-01-29T08:39:07;50.28;;;26.38;;
23578;SDS011;11967;50.852;4.400;2023-01-29T08:41:32;48.55;;;25.83;;
23578;SDS011;11967;50.852;4.400;2023-01-29T08:43:58;52.42;;;27.85;;
23578;SDS011;11967;50.852;4.400;2023-01-29T08:46:26;49.47;;;27.33;;
23578;SDS011;11967;50.852;4.400;2023-01-29T08:48:51;53.20;;;27.42;;
23578;SDS011;11967;50.852;4.400;2023-01-29T08:51:17;46.28;;;25.48;;
23578;SDS011;11967;50.852;4.400;2023-01-29T08:53:43;45.65;;;24.73;;
23578;SDS011;11967;50.852;4.400;2023-01-29T08:56:08;49.13;;;25.80;;
23578;SDS011;11967;50.852;4.400;2023-01-29T08:58:34;48.38;;;25.95;;
23578;SDS011;11967;50.852;4.400;2023-01-29T09:01:06;48.75;;;25.35;;
23578;SDS011;11967;50.852;4.400;2023-01-29T09:03:37;50.80;;;25.05;;
23578;SDS011;11967;50.852;4.400;2023-01-29T09:06:08;52.58;;;25.85;;
23578;SDS011;11967;50.852;4.400;2023-01-29T09:08:34;45.30;;;24.20;;
23578;SDS011;11967;50.852;4.400;2023-01-29T09:11:00;44.97;;;24.65;;
23578;SDS011;11967;50.852;4.400;2023-01-29T09:13:26;49.15;;;27.02;;
23578;SDS011;11967;50.852;4.400;2023-01-29T09:15:52;50.97;;;26.23;;
23578;SDS011;11967;50.852;4.400;2023-01-29T09:18:17;47.63;;;25.30;;
23578;SDS011;11967;50.852;4.400;2023-01-29T09:20:43;45.55;;;24.55;;
23578;SDS011;11967;50.852;4.400;2023-01-29T09:23:09;43.28;;;24.10;;
23578;SDS011;11967;50.852;4.400;2023-01-29T09:25:35;45.00;;;24.98;;
23578;SDS011;11967;50.852;4.400;2023-01-29T09:28:02;46.85;;;25.55;;
23578;SDS011;11967;50.852;4.400;2023-01-29T09:30:28;41.05;;;23.42;;
23578;SDS011;11967;50.852;4.400;2023-01-29T09:32:54;41.38;;;22.67;;
23578;SDS011;11967;50.852;4.400;2023-01-29T09:35:23;43.50;;;24.23;;
23578;SDS011;11967;50.852;4.400;2023-01-29T09:37:49;43.97;;;24.52;;
23578;SDS011;11967;50.852;4.400;2023-01-29T09:40:25;46.17;;;24.27;;
23578;SDS011;11967;50.852;4.400;2023-01-29T09:43:22;47.45;;;24.65;;
23578;SDS011;11967;50.852;4.400;2023-01-29T09:48:25;45.53;;;24.27;;
23578;SDS011;11967;50.852;4.400;2023-01-29T09:50:55;44.53;;;23.52;;
23578;SDS011;11967;50.852;4.400;2023-01-29T09:53:29;48.25;;;25.05;;
23578;SDS011;11967;50.852;4.400;2023-01-29T09:56:02;51.75;;;24.40;;
23578;SDS011;11967;50.852;4.400;2023-01-29T09:58:34;43.03;;;23.73;;
23578;SDS011;11967;50.852;4.400;2023-01-29T10:12:10;44.92;;;24.23;;
23578;SDS011;11967;50.852;4.400;2023-01-29T10:17:46;41.00;;;22.00;;
23578;SDS011;11967;50.852;4.400;2023-01-29T10:25:53;43.60;;;23.15;;
23578;SDS011;11967;50.852;4.400;2023-01-29T10:28:33;39.00;;;21.02;;
23578;SDS011;11967;50.852;4.400;2023-01-29T10:31:23;38.92;;;21.13;;
23578;SDS011;11967;50.852;4.400;2023-01-29T10:33:54;42.25;;;20.80;;
23578;SDS011;11967;50.852;4.400;2023-01-29T10:39:18;38.72;;;19.48;;
23578;SDS011;11967;50.852;4.400;2023-01-29T10:41:59;37.78;;;21.58;;
23578;SDS011;11967;50.852;4.400;2023-01-29T10:44:56;42.25;;;21.95;;
23578;SDS011;11967;50.852;4.400;2023-01-29T10:47:51;36.87;;;21.37;;
23578;SDS011;11967;50.852;4.400;2023-01-29T10:58:54;42.60;;;22.50;;
23578;SDS011;11967;50.852;4.400;2023-01-29T11:01:23;45.40;;;22.50;;
23578;SDS011;11967;50.852;4.400;2023-01-29T11:04:00;43.75;;;23.30;;
23578;SDS011;11967;50.852;4.400;2023-01-29T11:14:11;41.85;;;22.33;;
23578;SDS011;11967;50.852;4.400;2023-01-29T11:16:40;43.38;;;22.45;;
23578;SDS011;11967;50.852;4.400;2023-01-29T11:19:08;44.35;;;23.60;;
23578;SDS011;11967;50.852;4.400;2023-01-29T11:21:49;43.55;;;23.42;;
23578;SDS011;11967;50.852;4.400;2023-01-29T11:24:16;44.05;;;23.13;;
23578;SDS011;11967;50.852;4.400;2023-01-29T11:26:43;47.45;;;23.73;;
23578;SDS011;11967;50.852;4.400;2023-01-29T11:31:57;39.50;;;21.15;;
23578;SDS011;11967;50.852;4.400;2023-01-29T11:34:25;41.70;;;22.38;;
23578;SDS011;11967;50.852;4.400;2023-01-29T11:36:59;38.83;;;20.23;;
23578;SDS011;11967;50.852;4.400;2023-01-29T11:39:26;38.22;;;20.58;;
23578;SDS011;11967;50.852;4.400;2023-01-29T11:42:03;38.83;;;20.65;;
23578;SDS011;11967;50.852;4.400;2023-01-29T11:47:09;42.22;;;20.92;;
23578;SDS011;11967;50.852;4.400;2023-01-29T11:49:36;36.45;;;19.05;;
23578;SDS011;11967;50.852;4.400;2023-01-29T11:52:05;35.47;;;19.48;;
23578;SDS011;11967;50.852;4.400;2023-01-29T11:54:34;37.85;;;20.05;;
23578;SDS011;11967;50.852;4.400;2023-01-29T11:57:04;35.42;;;18.20;;
23578;SDS011;11967;50.852;4.400;2023-01-29T11:59:42;37.63;;;20.65;;
23578;SDS011;11967;50.852;4.400;2023-01-29T12:04:50;32.80;;;17.80;;
23578;SDS011;11967;50.852;4.400;2023-01-29T12:07:17;30.42;;;17.65;;
23578;SDS011;11967;50.852;4.400;2023-01-29T12:09:57;31.98;;;16.58;;
23578;SDS011;11967;50.852;4.400;2023-01-29T12:15:09;31.00;;;16.88;;
23578;SDS011;11967;50.852;4.400;2023-01-29T12:18:02;28.20;;;15.93;;
23578;SDS011;11967;50.852;4.400;2023-01-29T12:21:03;28.00;;;15.73;;
23578;SDS011;11967;50.852;4.400;2023-01-29T12:23:44;25.00;;;14.52;;
23578;SDS011;11967;50.852;4.400;2023-01-29T12:26:18;27.60;;;15.50;;
23578;SDS011;11967;50.852;4.400;2023-01-29T12:36:58;31.25;;;16.25;;
23578;SDS011;11967;50.852;4.400;2023-01-29T12:39:25;33.90;;;17.90;;
23578;SDS011;11967;50.852;4.400;2023-01-29T12:44:35;29.63;;;17.02;;
23578;SDS011;11967;50.852;4.400;2023-01-29T12:47:10;29.75;;;17.35;;
23578;SDS011;11967;50.852;4.400;2023-01-29T12:49:44;31.58;;;17.35;;
23578;SDS011;11967;50.852;4.400;2023-01-29T12:52:15;31.20;;;17.50;;
23578;SDS011;11967;50.852;4.400;2023-01-29T12:57:20;31.75;;;16.55;;
23578;SDS011;11967;50.852;4.400;2023-01-29T13:00:10;30.92;;;17.00;;
23578;SDS011;11967;50.852;4.400;2023-01-29T13:02:58;30.23;;;16.08;;
23578;SDS011;11967;50.852;4.400;2023-01-29T13:13:51;30.52;;;17.88;;
23578;SDS011;11967;50.852;4.400;2023-01-29T13:16:26;30.98;;;17.27;;
23578;SDS011;11967;50.852;4.400;2023-01-29T13:21:25;32.30;;;16.30;;
23578;SDS011;11967;50.852;4.400;2023-01-29T13:24:01;29.08;;;16.20;;
23578;SDS011;11967;50.852;4.400;2023-01-29T13:26:29;32.33;;;17.52;;
23578;SDS011;11967;50.852;4.400;2023-01-29T13:28:56;30.23;;;16.65;;
23578;SDS011;11967;50.852;4.400;2023-01-29T13:31:26;34.17;;;17.48;;
23578;SDS011;11967;50.852;4.400;2023-01-29T13:36:46;29.77;;;15.63;;
23578;SDS011;11967;50.852;4.400;2023-01-29T13:39:22;27.08;;;15.75;;
23578;SDS011;11967;50.852;4.400;2023-01-29T13:41:59;31.85;;;16.13;;
23578;SDS011;11967;50.852;4.400;2023-01-29T13:44:36;29.73;;;17.15;;
23578;SDS011;11967;50.852;4.400;2023-01-29T13:47:07;31.73;;;16.73;;
23578;SDS011;11967;50.852;4.400;2023-01-29T13:49:45;32.65;;;17.30;;
23578;SDS011;11967;50.852;4.400;2023-01-29T13:52:40;31.98;;;18.65;;
23578;SDS011;11967;50.852;4.400;2023-01-29T14:02:45;26.55;;;15.90;;
23578;SDS011;11967;50.852;4.400;2023-01-29T14:10:34;35.78;;;15.10;;
23578;SDS011;11967;50.852;4.400;2023-01-29T14:13:24;28.30;;;15.05;;
23578;SDS011;11967;50.852;4.400;2023-01-29T14:18:25;28.38;;;15.75;;
23578;SDS011;11967;50.852;4.400;2023-01-29T14:28:56;27.70;;;15.50;;
23578;SDS011;11967;50.852;4.400;2023-01-29T14:31:27;31.17;;;16.45;;
23578;SDS011;11967;50.852;4.400;2023-01-29T14:33:55;29.30;;;15.02;;
23578;SDS011;11967;50.852;4.400;2023-01-29T14:36:24;30.08;;;15.98;;
23578;SDS011;11967;50.852;4.400;2023-01-29T14:38:51;28.50;;;15.02;;
23578;SDS011;11967;50.852;4.400;2023-01-29T14:41:25;31.77;;;15.43;;
23578;SDS011;11967;50.852;4.400;2023-01-29T14:46:57;29.70;;;17.08;;
23578;SDS011;11967;50.852;4.400;2023-01-29T14:52:41;36.00;;;18.23;;
23578;SDS011;11967;50.852;4.400;2023-01-29T14:55:09;37.80;;;21.13;;
23578;SDS011;11967;50.852;4.400;2023-01-29T14:57:51;35.00;;;19.02;;
23578;SDS011;11967;50.852;4.400;2023-01-29T15:00:25;37.35;;;20.17;;
23578;SDS011;11967;50.852;4.400;2023-01-29T15:05:22;44.13;;;22.30;;
23578;SDS011;11967;50.852;4.400;2023-01-29T15:07:57;41.30;;;21.25;;
23578;SDS011;11967;50.852;4.400;2023-01-29T15:13:37;44.83;;;23.10;;
23578;SDS011;11967;50.852;4.400;2023-01-29T15:16:41;46.53;;;24.45;;
23578;SDS011;11967;50.852;4.400;2023-01-29T15:19:33;51.55;;;25.35;;
23578;SDS011;11967;50.852;4.400;2023-01-29T15:22:03;43.10;;;24.15;;
23578;SDS011;11967;50.852;4.400;2023-01-29T15:24:29;52.35;;;25.10;;
23578;SDS011;11967;50.852;4.400;2023-01-29T15:26:58;45.95;;;24.40;;
23578;SDS011;11967;50.852;4.400;2023-01-29T15:29:25;44.95;;;24.17;;
23578;SDS011;11967;50.852;4.400;2023-01-29T15:31:52;50.30;;;25.63;;
23578;SDS011;11967;50.852;4.400;2023-01-29T15:34:19;47.75;;;25.08;;
23578;SDS011;11967;50.852;4.400;2023-01-29T15:36:46;49.22;;;25.75;;
23578;SDS011;11967;50.852;4.400;2023-01-29T15:41:47;53.75;;;26.98;;
23578;SDS011;11967;50.852;4.400;2023-01-29T15:44:17;49.22;;;25.98;;
23578;SDS011;11967;50.852;4.400;2023-01-29T15:49:19;53.30;;;27.60;;
23578;SDS011;11967;50.852;4.400;2023-01-29T15:51:54;52.25;;;27.70;;
23578;SDS011;11967;50.852;4.400;2023-01-29T15:54:21;54.35;;;28.00;;
23578;SDS011;11967;50.852;4.400;2023-01-29T15:56:49;52.28;;;26.48;;
23578;SDS011;11967;50.852;4.400;2023-01-29T15:59:17;49.25;;;25.98;;
23578;SDS011;11967;50.852;4.400;2023-01-29T16:01:46;53.97;;;27.35;;
23578;SDS011;11967;50.852;4.400;2023-01-29T16:04:13;54.65;;;28.38;;
23578;SDS011;11967;50.852;4.400;2023-01-29T16:06:43;51.80;;;27.00;;
23578;SDS011;11967;50.852;4.400;2023-01-29T16:09:11;50.47;;;27.60;;
23578;SDS011;11967;50.852;4.400;2023-01-29T16:11:42;51.00;;;27.88;;
23578;SDS011;11967;50.852;4.400;2023-01-29T16:14:10;52.30;;;27.10;;
23578;SDS011;11967;50.852;4.400;2023-01-29T16:16:38;49.53;;;26.88;;
23578;SDS011;11967;50.852;4.400;2023-01-29T16:19:12;57.58;;;28.52;;
23578;SDS011;11967;50.852;4.400;2023-01-29T16:21:59;48.83;;;27.05;;
23578;SDS011;11967;50.852;4.400;2023-01-29T16:24:46;52.33;;;27.33;;
23578;SDS011;11967;50.852;4.400;2023-01-29T16:27:13;49.95;;;26.00;;
23578;SDS011;11967;50.852;4.400;2023-01-29T16:29:39;52.15;;;26.20;;
23578;SDS011;11967;50.852;4.400;2023-01-29T16:32:05;52.45;;;25.80;;
23578;SDS011;11967;50.852;4.400;2023-01-29T16:34:40;47.50;;;25.63;;
23578;SDS011;11967;50.852;4.400;2023-01-29T16:39:45;52.80;;;26.83;;
23578;SDS011;11967;50.852;4.400;2023-01-29T16:47:17;51.83;;;26.85;;
23578;SDS011;11967;50.852;4.400;2023-01-29T16:49:47;56.10;;;27.58;;
23578;SDS011;11967;50.852;4.400;2023-01-29T16:52:15;51.95;;;27.35;;
23578;SDS011;11967;50.852;4.400;2023-01-29T16:54:48;54.13;;;27.33;;
23578;SDS011;11967;50.852;4.400;2023-01-29T16:57:14;54.50;;;26.58;;
23578;SDS011;11967;50.852;4.400;2023-01-29T16:59:47;52.85;;;26.55;;
23578;SDS011;11967;50.852;4.400;2023-01-29T17:02:27;53.28;;;27.52;;
23578;SDS011;11967;50.852;4.400;2023-01-29T17:05:01;49.53;;;25.63;;
23578;SDS011;11967;50.852;4.400;2023-01-29T17:07:32;50.13;;;26.65;;
23578;SDS011;11967;50.852;4.400;2023-01-29T17:09:59;50.03;;;26.13;;
23578;SDS011;11967;50.852;4.400;2023-01-29T17:12:27;50.53;;;26.10;;
23578;SDS011;11967;50.852;4.400;2023-01-29T17:14:56;51.55;;;26.83;;
23578;SDS011;11967;50.852;4.400;2023-01-29T17:17:27;52.45;;;26.90;;
23578;SDS011;11967;50.852;4.400;2023-01-29T17:19:58;54.40;;;27.60;;
23578;SDS011;11967;50.852;4.400;2023-01-29T17:22:35;53.35;;;29.00;;
23578;SDS011;11967;50.852;4.400;2023-01-29T17:25:01;52.50;;;27.27;;
23578;SDS011;11967;50.852;4.400;2023-01-29T17:27:26;52.70;;;27.00;;
23578;SDS011;11967;50.852;4.400;2023-01-29T17:29:52;50.88;;;26.75;;
23578;SDS011;11967;50.852;4.400;2023-01-29T17:32:18;50.60;;;27.45;;
23578;SDS011;11967;50.852;4.400;2023-01-29T17:34:44;51.72;;;26.73;;
23578;SDS011;11967;50.852;4.400;2023-01-29T17:37:14;50.75;;;27.33;;
23578;SDS011;11967;50.852;4.400;2023-01-29T17:39:40;54.83;;;28.25;;
23578;SDS011;11967;50.852;4.400;2023-01-29T17:42:10;52.42;;;28.17;;
23578;SDS011;11967;50.852;4.400;2023-01-29T17:44:37;50.47;;;26.40;;
23578;SDS011;11967;50.852;4.400;2023-01-29T17:47:04;51.80;;;27.30;;
23578;SDS011;11967;50.852;4.400;2023-01-29T17:49:30;57.20;;;26.77;;
23578;SDS011;11967;50.852;4.400;2023-01-29T17:52:03;52.13;;;28.15;;